East Boldon, United Kingdom
Current Conditions -  °F | °C
As of 2:20 PM on Monday 24 Nov 2014 (Local Time) from EGNT Reporting Station
Clear Clear  
Wind Chill: 42°   Ceiling: Unl
Heat Index: 45°   Visibility: 6mi
Dew Point: 41°   Wind: 5mph
Humidity: 87%   Direction: 250°WSW
Pressure: 30.24"   Gusts: NA
Location:  54.95°N, 1.42°W
Report Text: EGNT 241420Z 25004KT CAVOK 07/05 Q1024
Loading
Personal Weather Stations






























Interactive Weather Map New forecast layout! Learn more

10-Day Weather Forecast

Advertisements
Track Severe Weather on mobile